Amelia City, Florida
Current Conditions -  °F | °C
As of 11:35 AM on Friday 24 Oct 2014 (Local Time) from KFHB Reporting Station
Clear Clear  
Wind Chill: 73°   Ceiling: Unl
Heat Index: 73°   Visibility: 10mi
Dew Point: 54°   Wind: 8mph
Humidity: 50%   Direction: 350°N
Pressure: 30.05"   Gusts: NA
Location:  30.6056°N, 81.5268°W
Report Text: KFHB 241535Z AUTO 35007KT 10SM CLR 23/12 A3005 RMK AO1
Loading
Personal Weather Stations






























Interactive Weather Map
Tropical Storm Tracking
New forecast layout! Learn more

10-Day Weather Forecast

Advertisements
Track Severe Weather on mobile